JST962 YPAD-YBCS
Flight info
| Callsign | JST962 |
|---|---|
| Flight time | 2h 53m |
| Altitude | 33000 |
| Route | AD H246 OOM DCT NONET/N0458F350 DCT SARIK DCT ONARA J64 CS |
| Aircraft | A321/M-SDE3FGHIRWY/LB1 |
Departure
| Time | 2026-04-30 02:09 |
|---|---|
| Airport | Adelaide International Airport (YPAD) |
Arrival
| Time | 2026-04-30 05:02 |
|---|---|
| Airport | Cairns International Airport (YBCS) |
| Time | Latitude | Longitude | Altitude | Speed | Heading |
|---|---|---|---|---|---|
| 2026-04-30 01:50 | -34.94085 | 138.53627 | 31 ft | 0 kts | 320° |
| 2026-04-30 02:00 | -34.94086 | 138.53629 | 26 ft | 3 kts | 320° |
| 2026-04-30 02:00 | -34.94105 | 138.53651 | 26 ft | 4 kts | 309° |
| 2026-04-30 02:00 | -34.94121 | 138.53678 | 29 ft | 4 kts | 296° |
| 2026-04-30 02:01 | -34.94129 | 138.53708 | 30 ft | 4 kts | 267° |
| 2026-04-30 02:01 | -34.94124 | 138.53729 | 27 ft | 0 kts | 230° |
| 2026-04-30 02:03 | -34.94125 | 138.53728 | 27 ft | 1 kts | 230° |
| 2026-04-30 02:03 | -34.94143 | 138.53699 | 26 ft | 8 kts | 232° |
| 2026-04-30 02:03 | -34.94192 | 138.53645 | 28 ft | 10 kts | 204° |
| 2026-04-30 02:03 | -34.94257 | 138.53657 | 30 ft | 10 kts | 174° |
| 2026-04-30 02:04 | -34.94315 | 138.53619 | 29 ft | 10 kts | 228° |
| 2026-04-30 02:04 | -34.94361 | 138.53553 | 26 ft | 10 kts | 229° |
| 2026-04-30 02:04 | -34.94409 | 138.53485 | 27 ft | 11 kts | 229° |
| 2026-04-30 02:04 | -34.94459 | 138.53412 | 27 ft | 11 kts | 230° |
| 2026-04-30 02:05 | -34.94506 | 138.53334 | 26 ft | 12 kts | 243° |
| 2026-04-30 02:05 | -34.94515 | 138.53237 | 26 ft | 12 kts | 280° |
| 2026-04-30 02:05 | -34.94475 | 138.53149 | 31 ft | 12 kts | 302° |
| 2026-04-30 02:05 | -34.94444 | 138.53055 | 27 ft | 12 kts | 274° |
| 2026-04-30 02:06 | -34.94485 | 138.52967 | 30 ft | 13 kts | 219° |
| 2026-04-30 02:06 | -34.94554 | 138.52901 | 29 ft | 13 kts | 217° |
| 2026-04-30 02:06 | -34.94626 | 138.52834 | 29 ft | 13 kts | 217° |
| 2026-04-30 02:06 | -34.94699 | 138.52766 | 27 ft | 13 kts | 217° |
| 2026-04-30 02:07 | -34.94774 | 138.52696 | 30 ft | 15 kts | 217° |
| 2026-04-30 02:07 | -34.94868 | 138.52607 | 28 ft | 19 kts | 218° |
| 2026-04-30 02:07 | -34.94986 | 138.52497 | 28 ft | 24 kts | 218° |
| 2026-04-30 02:07 | -34.95119 | 138.52370 | 29 ft | 24 kts | 218° |
| 2026-04-30 02:08 | -34.95252 | 138.52244 | 28 ft | 24 kts | 218° |
| 2026-04-30 02:08 | -34.95401 | 138.52224 | 26 ft | 23 kts | 139° |
| 2026-04-30 02:08 | -34.95396 | 138.52375 | 29 ft | 19 kts | 54° |
| 2026-04-30 02:08 | -34.95226 | 138.52631 | 27 ft | 75 kts | 49° |
| 2026-04-30 02:09 | -34.94733 | 138.53342 | 31 ft | 142 kts | 50° |
| 2026-04-30 02:09 | -34.93968 | 138.54431 | 118 ft | 188 kts | 45° |
| 2026-04-30 02:09 | -34.93106 | 138.55577 | 974 ft | 179 kts | 44° |
| 2026-04-30 02:09 | -34.92283 | 138.56728 | 1850 ft | 181 kts | 45° |
| 2026-04-30 02:10 | -34.91468 | 138.57922 | 2339 ft | 190 kts | 45° |
| 2026-04-30 02:10 | -34.90567 | 138.59237 | 2455 ft | 214 kts | 45° |
| 2026-04-30 02:10 | -34.89561 | 138.60698 | 2661 ft | 237 kts | 45° |
| 2026-04-30 02:10 | -34.88452 | 138.62299 | 2946 ft | 255 kts | 45° |
| 2026-04-30 02:11 | -34.87298 | 138.63973 | 3510 ft | 260 kts | 46° |
| 2026-04-30 02:11 | -34.86132 | 138.65667 | 4160 ft | 262 kts | 46° |
| 2026-04-30 02:11 | -34.84954 | 138.67360 | 4838 ft | 263 kts | 43° |
| 2026-04-30 02:11 | -34.83558 | 138.68774 | 5493 ft | 261 kts | 28° |
| 2026-04-30 02:12 | -34.81917 | 138.69677 | 6132 ft | 260 kts | 13° |
| 2026-04-30 02:12 | -34.80142 | 138.70016 | 6820 ft | 259 kts | 0° |
| 2026-04-30 02:12 | -34.78540 | 138.70059 | 7344 ft | 261 kts | 0° |
| 2026-04-30 02:15 | -34.77123 | 138.70105 | 7835 ft | 262 kts | 0° |
| 2026-04-30 02:15 | -34.75905 | 138.70147 | 8208 ft | 266 kts | 0° |
| 2026-04-30 02:15 | -34.74041 | 138.70212 | 8832 ft | 269 kts | 0° |
| 2026-04-30 02:16 | -34.72158 | 138.70278 | 9400 ft | 273 kts | 360° |
| 2026-04-30 02:16 | -34.70243 | 138.70344 | 10021 ft | 276 kts | 359° |
| 2026-04-30 02:16 | -34.68294 | 138.70412 | 10399 ft | 288 kts | 359° |
| 2026-04-30 02:16 | -34.66220 | 138.70482 | 10521 ft | 308 kts | 359° |
| 2026-04-30 02:17 | -34.64010 | 138.70558 | 10646 ft | 327 kts | 359° |
| 2026-04-30 02:17 | -34.60912 | 138.70661 | 11032 ft | 342 kts | 359° |
| 2026-04-30 02:17 | -34.59297 | 138.70717 | 11379 ft | 344 kts | 359° |
| 2026-04-30 02:17 | -34.56882 | 138.70803 | 11885 ft | 348 kts | 359° |
| 2026-04-30 02:18 | -34.54478 | 138.70892 | 12410 ft | 352 kts | 359° |
| 2026-04-30 02:18 | -34.52016 | 138.70982 | 12963 ft | 355 kts | 359° |
| 2026-04-30 02:18 | -34.49538 | 138.71069 | 13503 ft | 358 kts | 359° |
| 2026-04-30 02:18 | -34.47041 | 138.71153 | 14046 ft | 361 kts | 359° |
| 2026-04-30 02:19 | -34.44513 | 138.71239 | 14539 ft | 364 kts | 359° |
| 2026-04-30 02:19 | -34.41973 | 138.71327 | 15041 ft | 366 kts | 359° |
| 2026-04-30 02:19 | -34.39409 | 138.71419 | 15539 ft | 369 kts | 359° |
| 2026-04-30 02:19 | -34.36836 | 138.71512 | 16033 ft | 372 kts | 359° |
| 2026-04-30 02:20 | -34.34236 | 138.71605 | 16535 ft | 375 kts | 359° |
| 2026-04-30 02:20 | -34.31614 | 138.71697 | 17013 ft | 378 kts | 359° |
| 2026-04-30 02:20 | -34.28976 | 138.71790 | 17502 ft | 381 kts | 359° |
| 2026-04-30 02:20 | -34.26317 | 138.71885 | 17981 ft | 383 kts | 359° |
| 2026-04-30 02:21 | -34.23637 | 138.71979 | 18461 ft | 386 kts | 359° |
| 2026-04-30 02:21 | -34.20942 | 138.72073 | 18868 ft | 389 kts | 359° |
| 2026-04-30 02:21 | -34.18239 | 138.72457 | 19282 ft | 394 kts | 9° |
| 2026-04-30 02:21 | -34.15547 | 138.73165 | 19711 ft | 397 kts | 9° |
| 2026-04-30 02:22 | -34.12844 | 138.73872 | 20144 ft | 399 kts | 9° |
| 2026-04-30 02:22 | -34.10124 | 138.74576 | 20577 ft | 401 kts | 9° |
| 2026-04-30 02:22 | -34.07387 | 138.75278 | 20996 ft | 403 kts | 9° |
| 2026-04-30 02:22 | -34.04636 | 138.75983 | 21415 ft | 405 kts | 9° |
| 2026-04-30 02:23 | -34.01910 | 138.76680 | 21822 ft | 407 kts | 9° |
| 2026-04-30 02:23 | -33.99133 | 138.77391 | 22202 ft | 409 kts | 9° |
| 2026-04-30 02:23 | -33.96342 | 138.78111 | 22586 ft | 411 kts | 9° |
| 2026-04-30 02:23 | -33.93540 | 138.78840 | 22966 ft | 413 kts | 9° |
| 2026-04-30 02:24 | -33.90722 | 138.79568 | 23330 ft | 415 kts | 9° |
| 2026-04-30 02:24 | -33.87884 | 138.80298 | 23678 ft | 417 kts | 9° |
| 2026-04-30 02:24 | -33.85034 | 138.81033 | 23990 ft | 420 kts | 9° |
| 2026-04-30 02:24 | -33.82173 | 138.81772 | 24300 ft | 421 kts | 9° |
| 2026-04-30 02:25 | -33.79306 | 138.82511 | 24613 ft | 423 kts | 9° |
| 2026-04-30 02:25 | -33.76424 | 138.83252 | 24929 ft | 424 kts | 9° |
| 2026-04-30 02:25 | -33.73536 | 138.83996 | 25251 ft | 425 kts | 9° |
| 2026-04-30 02:25 | -33.70644 | 138.84740 | 25551 ft | 426 kts | 9° |
| 2026-04-30 02:26 | -33.67741 | 138.85484 | 25861 ft | 427 kts | 9° |
| 2026-04-30 02:26 | -33.64864 | 138.86216 | 26161 ft | 428 kts | 8° |
| 2026-04-30 02:26 | -33.61941 | 138.86959 | 26465 ft | 429 kts | 8° |
| 2026-04-30 02:26 | -33.59017 | 138.87707 | 26764 ft | 431 kts | 8° |
| 2026-04-30 02:27 | -33.56086 | 138.88458 | 27061 ft | 432 kts | 8° |
| 2026-04-30 02:27 | -33.53145 | 138.89211 | 27334 ft | 433 kts | 9° |
| 2026-04-30 02:27 | -33.50195 | 138.89967 | 27615 ft | 434 kts | 9° |
| 2026-04-30 02:27 | -33.47240 | 138.90720 | 27891 ft | 435 kts | 8° |
| 2026-04-30 02:28 | -33.44279 | 138.91474 | 28156 ft | 436 kts | 8° |
| 2026-04-30 02:28 | -33.41302 | 138.92229 | 28421 ft | 437 kts | 8° |
| 2026-04-30 02:28 | -33.38320 | 138.92984 | 28702 ft | 439 kts | 8° |
| 2026-04-30 02:28 | -33.35331 | 138.93744 | 28960 ft | 440 kts | 9° |
| 2026-04-30 02:29 | -33.32330 | 138.94510 | 29216 ft | 442 kts | 9° |
| 2026-04-30 02:29 | -33.29318 | 138.95280 | 29464 ft | 443 kts | 9° |
| 2026-04-30 02:29 | -33.26301 | 138.96051 | 29712 ft | 444 kts | 9° |
| 2026-04-30 02:29 | -33.23272 | 138.96822 | 29961 ft | 445 kts | 8° |
| 2026-04-30 02:30 | -33.20237 | 138.97591 | 30235 ft | 446 kts | 8° |
| 2026-04-30 02:30 | -33.17208 | 138.98355 | 30545 ft | 444 kts | 9° |
| 2026-04-30 02:30 | -33.14182 | 138.99118 | 30797 ft | 444 kts | 9° |
| 2026-04-30 02:30 | -33.11150 | 138.99880 | 31041 ft | 444 kts | 9° |
| 2026-04-30 02:31 | -33.08126 | 139.00640 | 31287 ft | 444 kts | 9° |
| 2026-04-30 02:31 | -33.05095 | 139.01404 | 31539 ft | 444 kts | 9° |
| 2026-04-30 02:31 | -33.02081 | 139.02166 | 31790 ft | 443 kts | 9° |
| 2026-04-30 02:31 | -32.99065 | 139.02930 | 32038 ft | 443 kts | 9° |
| 2026-04-30 02:32 | -32.96088 | 139.03682 | 32282 ft | 443 kts | 9° |
| 2026-04-30 02:32 | -32.93076 | 139.04440 | 32530 ft | 443 kts | 9° |
| 2026-04-30 02:32 | -32.90063 | 139.05199 | 32778 ft | 442 kts | 9° |
| 2026-04-30 02:32 | -32.87056 | 139.05955 | 33013 ft | 442 kts | 9° |
| 2026-04-30 02:33 | -32.84043 | 139.06710 | 33212 ft | 442 kts | 9° |
| 2026-04-30 02:33 | -32.78080 | 139.08208 | 33269 ft | 433 kts | 9° |
| 2026-04-30 02:34 | -32.72197 | 139.09680 | 33264 ft | 429 kts | 9° |
| 2026-04-30 02:34 | -32.66371 | 139.11143 | 33269 ft | 427 kts | 9° |
| 2026-04-30 02:35 | -32.60592 | 139.12592 | 33266 ft | 428 kts | 9° |
| 2026-04-30 02:35 | -32.54744 | 139.14045 | 33271 ft | 430 kts | 9° |
| 2026-04-30 02:36 | -32.48887 | 139.15510 | 33272 ft | 430 kts | 9° |
| 2026-04-30 02:36 | -32.43020 | 139.16967 | 33269 ft | 431 kts | 9° |
| 2026-04-30 02:37 | -32.37142 | 139.18429 | 33257 ft | 432 kts | 9° |
| 2026-04-30 02:37 | -32.31247 | 139.19894 | 33257 ft | 433 kts | 9° |
| 2026-04-30 02:38 | -32.25339 | 139.21349 | 33261 ft | 434 kts | 9° |
| 2026-04-30 02:38 | -32.19422 | 139.22815 | 33255 ft | 435 kts | 9° |
| 2026-04-30 02:39 | -32.13485 | 139.24290 | 33260 ft | 436 kts | 9° |
| 2026-04-30 02:39 | -32.07585 | 139.25748 | 33264 ft | 437 kts | 9° |
| 2026-04-30 02:40 | -32.01626 | 139.27220 | 33258 ft | 437 kts | 9° |
| 2026-04-30 02:40 | -31.95661 | 139.28692 | 33260 ft | 438 kts | 9° |
| 2026-04-30 02:41 | -31.89685 | 139.30159 | 33266 ft | 439 kts | 9° |
| 2026-04-30 02:41 | -31.83701 | 139.31627 | 33260 ft | 439 kts | 9° |
| 2026-04-30 02:42 | -31.77715 | 139.33099 | 33263 ft | 440 kts | 9° |
| 2026-04-30 02:42 | -31.71705 | 139.34569 | 33263 ft | 440 kts | 9° |
| 2026-04-30 02:43 | -31.65744 | 139.36037 | 33258 ft | 441 kts | 9° |
| 2026-04-30 02:43 | -31.59732 | 139.37506 | 33254 ft | 442 kts | 9° |
| 2026-04-30 02:44 | -31.53710 | 139.38975 | 33257 ft | 442 kts | 9° |
| 2026-04-30 02:44 | -31.47680 | 139.40444 | 33249 ft | 443 kts | 9° |
| 2026-04-30 02:45 | -31.41638 | 139.41914 | 33253 ft | 443 kts | 9° |
| 2026-04-30 02:45 | -31.35588 | 139.43385 | 33256 ft | 444 kts | 9° |
| 2026-04-30 02:46 | -31.29533 | 139.44854 | 33269 ft | 444 kts | 9° |
| 2026-04-30 02:46 | -31.23476 | 139.46325 | 33266 ft | 445 kts | 9° |
| 2026-04-30 02:47 | -31.17414 | 139.47797 | 33258 ft | 445 kts | 9° |
| 2026-04-30 02:47 | -31.11350 | 139.49268 | 33265 ft | 445 kts | 9° |
| 2026-04-30 02:48 | -31.05285 | 139.50732 | 33270 ft | 445 kts | 9° |
| 2026-04-30 02:48 | -30.99212 | 139.52204 | 33273 ft | 446 kts | 9° |
| 2026-04-30 02:49 | -30.93147 | 139.53676 | 33275 ft | 445 kts | 9° |
| 2026-04-30 02:49 | -30.87089 | 139.55136 | 33275 ft | 444 kts | 9° |
| 2026-04-30 02:50 | -30.81035 | 139.56581 | 33269 ft | 444 kts | 9° |
| 2026-04-30 02:50 | -30.74988 | 139.58029 | 33270 ft | 443 kts | 9° |
| 2026-04-30 02:51 | -30.68944 | 139.59481 | 33265 ft | 443 kts | 9° |
| 2026-04-30 02:51 | -30.62893 | 139.60938 | 33255 ft | 444 kts | 9° |
| 2026-04-30 02:52 | -30.56838 | 139.62389 | 33252 ft | 444 kts | 9° |
| 2026-04-30 02:52 | -30.50782 | 139.63833 | 33244 ft | 445 kts | 9° |
| 2026-04-30 02:53 | -30.44755 | 139.65275 | 33232 ft | 446 kts | 8° |
| 2026-04-30 02:53 | -30.38668 | 139.66723 | 33233 ft | 447 kts | 8° |
| 2026-04-30 02:54 | -30.32579 | 139.68170 | 33234 ft | 447 kts | 8° |
| 2026-04-30 02:54 | -30.26472 | 139.69624 | 33231 ft | 448 kts | 8° |
| 2026-04-30 02:55 | -30.20359 | 139.71076 | 33236 ft | 449 kts | 8° |
| 2026-04-30 02:55 | -30.14229 | 139.72529 | 33236 ft | 450 kts | 8° |
| 2026-04-30 02:56 | -30.08097 | 139.73982 | 33222 ft | 451 kts | 8° |
| 2026-04-30 02:56 | -30.01938 | 139.75436 | 33227 ft | 452 kts | 8° |
| 2026-04-30 02:57 | -29.95767 | 139.76899 | 33245 ft | 452 kts | 8° |
| 2026-04-30 02:57 | -29.89597 | 139.78357 | 33233 ft | 452 kts | 8° |
| 2026-04-30 02:58 | -29.83421 | 139.79809 | 33225 ft | 454 kts | 7° |
| 2026-04-30 02:58 | -29.77264 | 139.81256 | 33223 ft | 455 kts | 8° |
| 2026-04-30 02:59 | -29.72067 | 139.82479 | 33227 ft | 456 kts | 7° |
| 2026-04-30 02:59 | -29.64796 | 139.84193 | 33206 ft | 457 kts | 7° |
| 2026-04-30 03:00 | -29.59610 | 139.85411 | 33210 ft | 459 kts | 7° |
| 2026-04-30 03:00 | -29.53344 | 139.86880 | 33212 ft | 460 kts | 7° |
| 2026-04-30 03:01 | -29.47069 | 139.88349 | 33206 ft | 461 kts | 7° |
| 2026-04-30 03:01 | -29.40779 | 139.89813 | 33207 ft | 462 kts | 7° |
| 2026-04-30 03:02 | -29.34467 | 139.91285 | 33213 ft | 463 kts | 7° |
| 2026-04-30 03:02 | -29.28148 | 139.92762 | 33202 ft | 464 kts | 7° |
| 2026-04-30 03:03 | -29.21812 | 139.94241 | 33204 ft | 465 kts | 6° |
| 2026-04-30 03:03 | -29.12325 | 139.96453 | 33211 ft | 466 kts | 6° |
| 2026-04-30 03:04 | -29.05961 | 139.97934 | 33233 ft | 466 kts | 7° |
| 2026-04-30 03:04 | -28.99610 | 139.99408 | 33236 ft | 465 kts | 7° |
| 2026-04-30 03:05 | -28.93273 | 140.00873 | 33237 ft | 464 kts | 7° |
| 2026-04-30 03:05 | -28.86944 | 140.02335 | 33211 ft | 464 kts | 6° |
| 2026-04-30 03:06 | -28.80615 | 140.03796 | 33210 ft | 464 kts | 6° |
| 2026-04-30 03:06 | -28.74278 | 140.05261 | 33214 ft | 465 kts | 6° |
| 2026-04-30 03:07 | -28.67938 | 140.06726 | 33216 ft | 465 kts | 6° |
| 2026-04-30 03:07 | -28.61623 | 140.08187 | 33198 ft | 466 kts | 6° |
| 2026-04-30 03:08 | -28.55268 | 140.09657 | 33201 ft | 466 kts | 6° |
| 2026-04-30 03:08 | -28.48899 | 140.11114 | 33207 ft | 467 kts | 6° |
| 2026-04-30 03:09 | -28.42525 | 140.12574 | 33193 ft | 467 kts | 6° |
| 2026-04-30 03:09 | -28.36138 | 140.14040 | 33200 ft | 468 kts | 6° |
| 2026-04-30 03:10 | -28.29747 | 140.15502 | 33203 ft | 468 kts | 6° |
| 2026-04-30 03:10 | -28.23398 | 140.16953 | 33199 ft | 468 kts | 6° |
| 2026-04-30 03:11 | -28.17004 | 140.18412 | 33214 ft | 469 kts | 6° |
| 2026-04-30 03:11 | -28.10602 | 140.19898 | 33221 ft | 470 kts | 9° |
| 2026-04-30 03:12 | -28.04319 | 140.22076 | 33203 ft | 472 kts | 12° |
| 2026-04-30 03:12 | -27.98044 | 140.24290 | 33208 ft | 471 kts | 12° |
| 2026-04-30 03:13 | -27.91785 | 140.26486 | 33211 ft | 471 kts | 12° |
| 2026-04-30 03:13 | -27.85567 | 140.28662 | 33206 ft | 471 kts | 12° |
| 2026-04-30 03:14 | -27.79306 | 140.30843 | 33198 ft | 471 kts | 12° |
| 2026-04-30 03:14 | -27.73053 | 140.33031 | 33206 ft | 470 kts | 12° |
| 2026-04-30 03:15 | -27.66801 | 140.35221 | 33203 ft | 470 kts | 12° |
| 2026-04-30 03:15 | -27.60541 | 140.37412 | 33189 ft | 470 kts | 12° |
| 2026-04-30 03:16 | -27.54293 | 140.39593 | 33194 ft | 470 kts | 12° |
| 2026-04-30 03:16 | -27.48041 | 140.41770 | 33199 ft | 470 kts | 12° |
| 2026-04-30 03:17 | -27.41824 | 140.43928 | 33196 ft | 470 kts | 12° |
| 2026-04-30 03:17 | -27.35564 | 140.46091 | 33193 ft | 470 kts | 12° |
| 2026-04-30 03:18 | -27.29235 | 140.48298 | 33193 ft | 470 kts | 12° |
| 2026-04-30 03:18 | -27.23001 | 140.50464 | 33193 ft | 470 kts | 12° |
| 2026-04-30 03:19 | -27.17941 | 140.52203 | 33177 ft | 470 kts | 12° |
| 2026-04-30 03:20 | -27.13877 | 140.53609 | 33180 ft | 470 kts | 12° |
| 2026-04-30 03:20 | -27.07611 | 140.55782 | 33186 ft | 470 kts | 12° |
| 2026-04-30 03:21 | -27.01354 | 140.57945 | 33186 ft | 471 kts | 12° |
| 2026-04-30 03:21 | -26.95077 | 140.60098 | 33194 ft | 471 kts | 12° |
| 2026-04-30 03:22 | -26.88848 | 140.62252 | 33186 ft | 471 kts | 12° |
| 2026-04-30 03:22 | -26.82589 | 140.64415 | 33195 ft | 471 kts | 12° |
| 2026-04-30 03:23 | -26.76331 | 140.66564 | 33183 ft | 470 kts | 12° |
| 2026-04-30 03:23 | -26.70079 | 140.68707 | 33185 ft | 470 kts | 12° |
| 2026-04-30 03:24 | -26.63827 | 140.70853 | 33187 ft | 469 kts | 12° |
| 2026-04-30 03:24 | -26.57584 | 140.72992 | 33171 ft | 469 kts | 12° |
| 2026-04-30 03:25 | -26.51329 | 140.75125 | 33171 ft | 469 kts | 12° |
| 2026-04-30 03:25 | -26.45079 | 140.77256 | 33187 ft | 469 kts | 12° |
| 2026-04-30 03:26 | -26.38832 | 140.79391 | 33191 ft | 470 kts | 12° |
| 2026-04-30 03:26 | -26.32582 | 140.81530 | 33181 ft | 470 kts | 12° |
| 2026-04-30 03:27 | -26.26328 | 140.83660 | 33181 ft | 469 kts | 12° |
| 2026-04-30 03:27 | -26.20076 | 140.85775 | 33178 ft | 469 kts | 12° |
| 2026-04-30 03:28 | -26.13832 | 140.87893 | 33172 ft | 469 kts | 12° |
| 2026-04-30 03:28 | -26.07618 | 140.90007 | 33178 ft | 469 kts | 12° |
| 2026-04-30 03:29 | -26.01370 | 140.92135 | 33177 ft | 469 kts | 12° |
| 2026-04-30 03:29 | -25.95120 | 140.94251 | 33177 ft | 469 kts | 12° |
| 2026-04-30 03:30 | -25.88877 | 140.96364 | 33164 ft | 469 kts | 12° |
| 2026-04-30 03:30 | -25.82636 | 140.98463 | 33165 ft | 469 kts | 12° |
| 2026-04-30 03:31 | -25.76395 | 141.00565 | 33163 ft | 469 kts | 12° |
| 2026-04-30 03:31 | -25.70152 | 141.02670 | 33148 ft | 469 kts | 12° |
| 2026-04-30 03:32 | -25.63900 | 141.04780 | 33157 ft | 469 kts | 12° |
| 2026-04-30 03:32 | -25.57650 | 141.06880 | 33161 ft | 469 kts | 12° |
| 2026-04-30 03:33 | -25.51401 | 141.08984 | 33160 ft | 469 kts | 12° |
| 2026-04-30 03:33 | -25.45157 | 141.11083 | 33158 ft | 469 kts | 12° |
| 2026-04-30 03:34 | -25.38910 | 141.13176 | 33161 ft | 469 kts | 12° |
| 2026-04-30 03:34 | -25.32670 | 141.15081 | 33159 ft | 464 kts | 5° |
| 2026-04-30 03:35 | -25.26313 | 141.16289 | 33151 ft | 463 kts | 4° |
| 2026-04-30 03:35 | -25.19947 | 141.17483 | 33157 ft | 464 kts | 4° |
| 2026-04-30 03:36 | -25.13588 | 141.18679 | 33157 ft | 463 kts | 4° |
| 2026-04-30 03:36 | -25.07227 | 141.19873 | 33159 ft | 463 kts | 5° |
| 2026-04-30 03:37 | -25.00877 | 141.21075 | 33155 ft | 463 kts | 5° |
| 2026-04-30 03:37 | -24.94534 | 141.22268 | 33157 ft | 462 kts | 5° |
| 2026-04-30 03:38 | -24.88184 | 141.23460 | 33158 ft | 463 kts | 5° |
| 2026-04-30 03:38 | -24.81841 | 141.24656 | 33157 ft | 462 kts | 5° |
| 2026-04-30 03:39 | -24.75497 | 141.25841 | 33156 ft | 462 kts | 5° |
| 2026-04-30 03:39 | -24.69150 | 141.27036 | 33156 ft | 462 kts | 5° |
| 2026-04-30 03:40 | -24.62808 | 141.28230 | 33155 ft | 462 kts | 5° |
| 2026-04-30 03:40 | -24.56464 | 141.29412 | 33138 ft | 462 kts | 5° |
| 2026-04-30 03:41 | -24.50173 | 141.30585 | 33142 ft | 462 kts | 5° |
| 2026-04-30 03:41 | -24.43841 | 141.31767 | 33144 ft | 462 kts | 5° |
| 2026-04-30 03:42 | -24.37507 | 141.32944 | 33146 ft | 462 kts | 5° |
| 2026-04-30 03:42 | -24.31170 | 141.34132 | 33141 ft | 462 kts | 5° |
| 2026-04-30 03:43 | -24.24831 | 141.35313 | 33141 ft | 462 kts | 5° |
| 2026-04-30 03:43 | -24.18498 | 141.36487 | 33144 ft | 461 kts | 5° |
| 2026-04-30 03:44 | -24.12164 | 141.37662 | 33135 ft | 461 kts | 5° |
| 2026-04-30 03:44 | -24.05837 | 141.38837 | 33137 ft | 461 kts | 5° |
| 2026-04-30 03:45 | -23.99506 | 141.40008 | 33146 ft | 461 kts | 5° |
| 2026-04-30 03:45 | -23.93177 | 141.41180 | 33142 ft | 461 kts | 5° |
| 2026-04-30 03:46 | -23.87912 | 141.42152 | 33126 ft | 462 kts | 5° |
| 2026-04-30 03:46 | -23.81577 | 141.43328 | 33132 ft | 462 kts | 5° |
| 2026-04-30 03:47 | -23.75238 | 141.44512 | 33132 ft | 462 kts | 5° |
| 2026-04-30 03:47 | -23.68903 | 141.45673 | 33131 ft | 462 kts | 5° |
| 2026-04-30 03:48 | -23.62567 | 141.46838 | 33119 ft | 462 kts | 5° |
| 2026-04-30 03:48 | -23.56221 | 141.48003 | 33121 ft | 462 kts | 5° |
| 2026-04-30 03:49 | -23.49881 | 141.49174 | 33123 ft | 462 kts | 5° |
| 2026-04-30 03:49 | -23.43534 | 141.50341 | 33127 ft | 462 kts | 5° |
| 2026-04-30 03:50 | -23.37190 | 141.51505 | 33116 ft | 462 kts | 4° |
| 2026-04-30 03:50 | -23.30844 | 141.52668 | 33120 ft | 462 kts | 4° |
| 2026-04-30 03:51 | -23.24497 | 141.53830 | 33122 ft | 462 kts | 4° |
| 2026-04-30 03:51 | -23.18151 | 141.54992 | 33126 ft | 463 kts | 4° |
| 2026-04-30 03:52 | -23.11803 | 141.56155 | 33123 ft | 462 kts | 4° |
| 2026-04-30 03:52 | -23.05460 | 141.57315 | 33128 ft | 462 kts | 4° |
| 2026-04-30 03:53 | -22.99109 | 141.58480 | 33124 ft | 462 kts | 4° |
| 2026-04-30 03:53 | -22.92763 | 141.59633 | 33106 ft | 462 kts | 4° |
| 2026-04-30 03:54 | -22.86416 | 141.60787 | 33112 ft | 463 kts | 4° |
| 2026-04-30 03:54 | -22.80100 | 141.61937 | 33109 ft | 463 kts | 4° |
| 2026-04-30 03:55 | -22.73740 | 141.63092 | 33113 ft | 464 kts | 4° |
| 2026-04-30 03:55 | -22.67373 | 141.64248 | 33091 ft | 464 kts | 4° |
| 2026-04-30 03:56 | -22.60986 | 141.65404 | 33087 ft | 465 kts | 4° |
| 2026-04-30 03:56 | -22.54590 | 141.66571 | 33089 ft | 467 kts | 4° |
| 2026-04-30 03:57 | -22.48181 | 141.67742 | 33087 ft | 468 kts | 4° |
| 2026-04-30 03:57 | -22.41755 | 141.68903 | 33098 ft | 468 kts | 4° |
| 2026-04-30 03:58 | -22.35333 | 141.70064 | 33111 ft | 468 kts | 4° |
| 2026-04-30 03:58 | -22.28889 | 141.71223 | 33108 ft | 468 kts | 4° |
| 2026-04-30 03:59 | -22.22460 | 141.72381 | 33109 ft | 469 kts | 4° |
| 2026-04-30 03:59 | -22.16029 | 141.73550 | 33101 ft | 469 kts | 4° |
| 2026-04-30 04:00 | -22.09630 | 141.74702 | 33101 ft | 469 kts | 4° |
| 2026-04-30 04:00 | -22.03190 | 141.75860 | 33105 ft | 469 kts | 4° |
| 2026-04-30 04:01 | -21.96882 | 141.77927 | 33106 ft | 478 kts | 16° |
| 2026-04-30 04:01 | -21.90679 | 141.80530 | 33092 ft | 478 kts | 16° |
| 2026-04-30 04:02 | -21.84469 | 141.83118 | 33100 ft | 478 kts | 16° |
| 2026-04-30 04:02 | -21.78254 | 141.85693 | 33094 ft | 479 kts | 16° |
| 2026-04-30 04:03 | -21.72044 | 141.88283 | 33076 ft | 479 kts | 16° |
| 2026-04-30 04:03 | -21.65830 | 141.90875 | 33084 ft | 479 kts | 16° |
| 2026-04-30 04:04 | -21.59605 | 141.93450 | 33087 ft | 479 kts | 16° |
| 2026-04-30 04:04 | -21.53414 | 141.95998 | 33082 ft | 479 kts | 16° |
| 2026-04-30 04:05 | -21.47190 | 141.98573 | 33070 ft | 479 kts | 16° |
| 2026-04-30 04:05 | -21.40971 | 142.01161 | 33079 ft | 479 kts | 16° |
| 2026-04-30 04:06 | -21.34740 | 142.03742 | 33072 ft | 479 kts | 16° |
| 2026-04-30 04:06 | -21.28517 | 142.06305 | 33088 ft | 479 kts | 16° |
| 2026-04-30 04:07 | -21.22280 | 142.08871 | 33070 ft | 479 kts | 16° |
| 2026-04-30 04:08 | -21.12981 | 142.12701 | 33067 ft | 480 kts | 16° |
| 2026-04-30 04:08 | -21.06750 | 142.15271 | 33064 ft | 480 kts | 16° |
| 2026-04-30 04:09 | -21.00519 | 142.17835 | 33058 ft | 480 kts | 16° |
| 2026-04-30 04:09 | -20.94288 | 142.20394 | 33059 ft | 480 kts | 15° |
| 2026-04-30 04:10 | -20.88055 | 142.22952 | 33059 ft | 480 kts | 16° |
| 2026-04-30 04:10 | -20.81815 | 142.25520 | 33061 ft | 480 kts | 16° |
| 2026-04-30 04:11 | -20.75574 | 142.28074 | 33050 ft | 480 kts | 15° |
| 2026-04-30 04:11 | -20.69335 | 142.30622 | 33060 ft | 480 kts | 15° |
| 2026-04-30 04:12 | -20.63097 | 142.33170 | 33055 ft | 480 kts | 15° |
| 2026-04-30 04:12 | -20.56862 | 142.35724 | 33055 ft | 480 kts | 15° |
| 2026-04-30 04:13 | -20.50628 | 142.38272 | 33045 ft | 479 kts | 15° |
| 2026-04-30 04:13 | -20.44406 | 142.40809 | 33056 ft | 479 kts | 15° |
| 2026-04-30 04:14 | -20.38223 | 142.43325 | 33053 ft | 478 kts | 15° |
| 2026-04-30 04:14 | -20.32001 | 142.45857 | 33051 ft | 478 kts | 15° |
| 2026-04-30 04:15 | -20.25784 | 142.48386 | 33038 ft | 478 kts | 15° |
| 2026-04-30 04:15 | -20.19582 | 142.50916 | 33050 ft | 477 kts | 15° |
| 2026-04-30 04:16 | -20.13384 | 142.53438 | 33060 ft | 477 kts | 15° |
| 2026-04-30 04:16 | -20.07190 | 142.55950 | 33054 ft | 476 kts | 14° |
| 2026-04-30 04:17 | -20.01011 | 142.58454 | 33046 ft | 475 kts | 15° |
| 2026-04-30 04:17 | -19.94833 | 142.60965 | 33043 ft | 475 kts | 15° |
| 2026-04-30 04:18 | -19.88694 | 142.63458 | 33044 ft | 475 kts | 15° |
| 2026-04-30 04:18 | -19.82518 | 142.65947 | 33041 ft | 475 kts | 14° |
| 2026-04-30 04:19 | -19.76345 | 142.68440 | 33031 ft | 474 kts | 14° |
| 2026-04-30 04:19 | -19.70177 | 142.70924 | 33030 ft | 474 kts | 14° |
| 2026-04-30 04:20 | -19.64003 | 142.73406 | 33031 ft | 474 kts | 14° |
| 2026-04-30 04:20 | -19.57837 | 142.75893 | 33029 ft | 474 kts | 14° |
| 2026-04-30 04:21 | -19.51673 | 142.78390 | 33021 ft | 474 kts | 14° |
| 2026-04-30 04:21 | -19.45508 | 142.80872 | 33025 ft | 474 kts | 14° |
| 2026-04-30 04:22 | -19.39350 | 142.83341 | 33027 ft | 474 kts | 14° |
| 2026-04-30 04:22 | -19.33185 | 142.85823 | 33027 ft | 473 kts | 14° |
| 2026-04-30 04:23 | -19.27027 | 142.88302 | 33011 ft | 473 kts | 14° |
| 2026-04-30 04:23 | -19.20864 | 142.90771 | 33017 ft | 474 kts | 13° |
| 2026-04-30 04:24 | -19.14700 | 142.93236 | 33022 ft | 474 kts | 14° |
| 2026-04-30 04:24 | -19.08577 | 142.95692 | 33024 ft | 474 kts | 14° |
| 2026-04-30 04:25 | -19.02411 | 142.98164 | 33022 ft | 474 kts | 13° |
| 2026-04-30 04:25 | -18.96239 | 143.00634 | 33027 ft | 473 kts | 13° |
| 2026-04-30 04:26 | -18.90073 | 143.03097 | 33031 ft | 473 kts | 13° |
| 2026-04-30 04:26 | -18.83915 | 143.05556 | 33031 ft | 473 kts | 13° |
| 2026-04-30 04:27 | -18.77755 | 143.08009 | 33026 ft | 473 kts | 13° |
| 2026-04-30 04:27 | -18.71605 | 143.10471 | 33030 ft | 472 kts | 13° |
| 2026-04-30 04:28 | -18.65457 | 143.12924 | 33031 ft | 472 kts | 13° |
| 2026-04-30 04:28 | -18.59309 | 143.15364 | 33029 ft | 472 kts | 13° |
| 2026-04-30 04:29 | -18.53166 | 143.17803 | 33018 ft | 472 kts | 13° |
| 2026-04-30 04:29 | -18.47018 | 143.20248 | 33022 ft | 472 kts | 13° |
| 2026-04-30 04:30 | -18.40908 | 143.22675 | 33021 ft | 472 kts | 13° |
| 2026-04-30 04:30 | -18.34832 | 143.25390 | 33032 ft | 482 kts | 23° |
| 2026-04-30 04:31 | -18.29575 | 143.29932 | 33007 ft | 500 kts | 44° |
| 2026-04-30 04:31 | -18.26177 | 143.34974 | 33005 ft | 506 kts | 51° |
| 2026-04-30 04:32 | -18.22281 | 143.41094 | 33008 ft | 507 kts | 51° |
| 2026-04-30 04:32 | -18.18324 | 143.47252 | 33020 ft | 507 kts | 51° |
| 2026-04-30 04:33 | -18.14355 | 143.53393 | 33022 ft | 508 kts | 51° |
| 2026-04-30 04:33 | -18.10386 | 143.59544 | 33022 ft | 508 kts | 51° |
| 2026-04-30 04:34 | -18.06430 | 143.65693 | 33020 ft | 508 kts | 51° |
| 2026-04-30 04:34 | -18.02463 | 143.71840 | 33024 ft | 508 kts | 51° |
| 2026-04-30 04:35 | -17.98491 | 143.77983 | 33034 ft | 508 kts | 51° |
| 2026-04-30 04:35 | -17.94530 | 143.84121 | 33040 ft | 507 kts | 51° |
| 2026-04-30 04:36 | -17.90570 | 143.90243 | 33045 ft | 506 kts | 51° |
| 2026-04-30 04:36 | -17.86602 | 143.96350 | 33030 ft | 506 kts | 51° |
| 2026-04-30 04:37 | -17.82637 | 144.02456 | 33028 ft | 506 kts | 51° |
| 2026-04-30 04:37 | -17.78691 | 144.08536 | 33037 ft | 506 kts | 51° |
| 2026-04-30 04:38 | -17.74718 | 144.14643 | 33036 ft | 506 kts | 51° |
| 2026-04-30 04:38 | -17.70744 | 144.20746 | 32758 ft | 506 kts | 51° |
| 2026-04-30 04:38 | -17.68762 | 144.23795 | 32509 ft | 505 kts | 51° |
| 2026-04-30 04:39 | -17.66786 | 144.26831 | 32275 ft | 503 kts | 51° |
| 2026-04-30 04:39 | -17.64812 | 144.29864 | 32027 ft | 502 kts | 51° |
| 2026-04-30 04:39 | -17.62840 | 144.32894 | 31761 ft | 500 kts | 51° |
| 2026-04-30 04:39 | -17.60882 | 144.35904 | 31167 ft | 500 kts | 52° |
| 2026-04-30 04:40 | -17.58923 | 144.38913 | 30620 ft | 498 kts | 52° |
| 2026-04-30 04:40 | -17.57004 | 144.41861 | 30089 ft | 495 kts | 52° |
| 2026-04-30 04:40 | -17.55065 | 144.44833 | 29482 ft | 493 kts | 52° |
| 2026-04-30 04:40 | -17.53140 | 144.47782 | 28948 ft | 488 kts | 52° |
| 2026-04-30 04:41 | -17.51227 | 144.50706 | 28365 ft | 484 kts | 52° |
| 2026-04-30 04:41 | -17.49329 | 144.53604 | 27794 ft | 481 kts | 52° |
| 2026-04-30 04:41 | -17.47441 | 144.56476 | 27212 ft | 477 kts | 52° |
| 2026-04-30 04:41 | -17.45563 | 144.59330 | 26628 ft | 475 kts | 53° |
| 2026-04-30 04:42 | -17.43700 | 144.62171 | 26050 ft | 472 kts | 53° |
| 2026-04-30 04:42 | -17.41850 | 144.65003 | 25465 ft | 470 kts | 53° |
| 2026-04-30 04:42 | -17.40009 | 144.67825 | 24893 ft | 467 kts | 53° |
| 2026-04-30 04:42 | -17.38179 | 144.70627 | 24314 ft | 465 kts | 54° |
| 2026-04-30 04:43 | -17.36357 | 144.73411 | 23739 ft | 463 kts | 54° |
| 2026-04-30 04:43 | -17.34538 | 144.76181 | 23112 ft | 460 kts | 54° |
| 2026-04-30 04:43 | -17.32739 | 144.78920 | 22558 ft | 455 kts | 54° |
| 2026-04-30 04:43 | -17.30957 | 144.81634 | 21982 ft | 450 kts | 54° |
| 2026-04-30 04:44 | -17.29188 | 144.84327 | 21432 ft | 446 kts | 54° |
| 2026-04-30 04:44 | -17.27438 | 144.86989 | 20892 ft | 442 kts | 54° |
| 2026-04-30 04:44 | -17.25700 | 144.89628 | 20360 ft | 439 kts | 54° |
| 2026-04-30 04:44 | -17.23974 | 144.92249 | 19853 ft | 436 kts | 54° |
| 2026-04-30 04:45 | -17.22262 | 144.94851 | 19337 ft | 433 kts | 54° |
| 2026-04-30 04:45 | -17.20562 | 144.97437 | 18849 ft | 431 kts | 54° |
| 2026-04-30 04:45 | -17.18869 | 145.00014 | 18374 ft | 428 kts | 55° |
| 2026-04-30 04:45 | -17.17189 | 145.02570 | 17846 ft | 425 kts | 55° |
| 2026-04-30 04:46 | -17.15524 | 145.05099 | 17374 ft | 420 kts | 54° |
| 2026-04-30 04:46 | -17.13874 | 145.07603 | 16911 ft | 415 kts | 54° |
| 2026-04-30 04:46 | -17.12243 | 145.10073 | 16416 ft | 411 kts | 54° |
| 2026-04-30 04:46 | -17.10645 | 145.12492 | 15946 ft | 407 kts | 54° |
| 2026-04-30 04:47 | -17.09040 | 145.14922 | 15447 ft | 403 kts | 53° |
| 2026-04-30 04:47 | -17.07458 | 145.17315 | 14969 ft | 399 kts | 53° |
| 2026-04-30 04:47 | -17.05890 | 145.19694 | 14451 ft | 395 kts | 53° |
| 2026-04-30 04:47 | -17.04340 | 145.22044 | 13951 ft | 391 kts | 53° |
| 2026-04-30 04:48 | -17.02799 | 145.24382 | 13388 ft | 388 kts | 53° |
| 2026-04-30 04:48 | -17.01278 | 145.26683 | 12882 ft | 382 kts | 54° |
| 2026-04-30 04:48 | -16.99777 | 145.28951 | 12368 ft | 376 kts | 54° |
| 2026-04-30 04:48 | -16.98298 | 145.31186 | 11865 ft | 371 kts | 55° |
| 2026-04-30 04:49 | -16.96836 | 145.33391 | 11358 ft | 367 kts | 55° |
| 2026-04-30 04:49 | -16.95393 | 145.35571 | 10932 ft | 360 kts | 56° |
| 2026-04-30 04:49 | -16.94002 | 145.37672 | 10814 ft | 344 kts | 56° |
| 2026-04-30 04:49 | -16.92641 | 145.39661 | 10687 ft | 329 kts | 51° |
| 2026-04-30 04:50 | -16.91058 | 145.41314 | 10575 ft | 317 kts | 40° |
| 2026-04-30 04:50 | -16.89259 | 145.42569 | 10455 ft | 306 kts | 30° |
| 2026-04-30 04:50 | -16.87446 | 145.43589 | 10344 ft | 294 kts | 31° |
| 2026-04-30 04:50 | -16.85668 | 145.44595 | 10144 ft | 287 kts | 31° |
| 2026-04-30 04:51 | -16.83924 | 145.45583 | 10008 ft | 284 kts | 31° |
| 2026-04-30 04:51 | -16.82175 | 145.46578 | 9564 ft | 289 kts | 31° |
| 2026-04-30 04:51 | -16.80411 | 145.47580 | 9234 ft | 286 kts | 32° |
| 2026-04-30 04:51 | -16.78669 | 145.48567 | 8879 ft | 284 kts | 32° |
| 2026-04-30 04:52 | -16.76933 | 145.49550 | 8491 ft | 283 kts | 32° |
| 2026-04-30 04:52 | -16.75207 | 145.50530 | 8127 ft | 282 kts | 32° |
| 2026-04-30 04:52 | -16.73488 | 145.51506 | 7777 ft | 281 kts | 32° |
| 2026-04-30 04:52 | -16.71776 | 145.52479 | 7418 ft | 279 kts | 32° |
| 2026-04-30 04:53 | -16.70140 | 145.53541 | 7034 ft | 275 kts | 44° |
| 2026-04-30 04:53 | -16.68820 | 145.54962 | 6634 ft | 271 kts | 54° |
| 2026-04-30 04:53 | -16.67602 | 145.56526 | 5916 ft | 284 kts | 54° |
| 2026-04-30 04:53 | -16.66330 | 145.58158 | 5242 ft | 294 kts | 54° |
| 2026-04-30 04:54 | -16.65066 | 145.59798 | 5032 ft | 283 kts | 59° |
| 2026-04-30 04:54 | -16.64392 | 145.61586 | 4974 ft | 259 kts | 88° |
| 2026-04-30 04:54 | -16.64641 | 145.63355 | 4981 ft | 239 kts | 114° |
| 2026-04-30 04:54 | -16.65577 | 145.64711 | 4898 ft | 229 kts | 139° |
| 2026-04-30 04:55 | -16.66944 | 145.65498 | 4750 ft | 221 kts | 153° |
| 2026-04-30 04:55 | -16.68345 | 145.66124 | 4415 ft | 219 kts | 153° |
| 2026-04-30 04:55 | -16.69743 | 145.66753 | 4056 ft | 218 kts | 153° |
| 2026-04-30 04:55 | -16.71091 | 145.67359 | 3722 ft | 202 kts | 152° |
| 2026-04-30 04:56 | -16.72314 | 145.67909 | 3318 ft | 182 kts | 152° |
| 2026-04-30 04:56 | -16.73428 | 145.68412 | 2914 ft | 167 kts | 152° |
| 2026-04-30 04:56 | -16.74453 | 145.68875 | 2549 ft | 154 kts | 152° |
| 2026-04-30 04:56 | -16.75404 | 145.69305 | 2297 ft | 138 kts | 152° |
| 2026-04-30 04:57 | -16.76249 | 145.69686 | 2152 ft | 127 kts | 152° |
| 2026-04-30 04:57 | -16.77042 | 145.70045 | 2014 ft | 123 kts | 153° |
| 2026-04-30 04:57 | -16.77303 | 145.70163 | 1954 ft | 122 kts | 154° |
| 2026-04-30 04:59 | -16.77402 | 145.70208 | 1933 ft | 123 kts | 153° |
| 2026-04-30 04:59 | -16.78203 | 145.70571 | 1753 ft | 125 kts | 154° |
| 2026-04-30 04:59 | -16.78992 | 145.70927 | 1596 ft | 123 kts | 155° |
| 2026-04-30 04:59 | -16.79772 | 145.71280 | 1434 ft | 121 kts | 155° |
| 2026-04-30 05:00 | -16.80536 | 145.71625 | 1285 ft | 121 kts | 154° |
| 2026-04-30 05:00 | -16.81315 | 145.71977 | 1133 ft | 120 kts | 155° |
| 2026-04-30 05:00 | -16.82068 | 145.72317 | 980 ft | 119 kts | 156° |
| 2026-04-30 05:00 | -16.82835 | 145.72663 | 824 ft | 121 kts | 156° |
| 2026-04-30 05:01 | -16.83616 | 145.73016 | 668 ft | 121 kts | 156° |
| 2026-04-30 05:01 | -16.84384 | 145.73363 | 521 ft | 120 kts | 158° |
| 2026-04-30 05:01 | -16.85142 | 145.73705 | 354 ft | 121 kts | 158° |
| 2026-04-30 05:01 | -16.85921 | 145.74059 | 152 ft | 122 kts | 155° |
| 2026-04-30 05:02 | -16.86701 | 145.74412 | -8 ft | 122 kts | 156° |
| 2026-04-30 05:02 | -16.87314 | 145.74697 | -14 ft | 57 kts | 158° |
| 2026-04-30 05:02 | -16.87433 | 145.74748 | -13 ft | 0 kts | 158° |
| 2026-04-30 05:03 | -16.87436 | 145.74749 | -13 ft | 4 kts | 158° |
| 2026-04-30 05:03 | -16.87520 | 145.74785 | 6 ft | 22 kts | 158° |
| 2026-04-30 05:03 | -16.87668 | 145.74847 | 19 ft | 23 kts | 158° |
| 2026-04-30 05:03 | -16.87698 | 145.74982 | 17 ft | 22 kts | 65° |
| 2026-04-30 05:04 | -16.87656 | 145.75113 | 16 ft | 17 kts | 108° |
| 2026-04-30 05:04 | -16.87680 | 145.75209 | 19 ft | 11 kts | 64° |
| 2026-04-30 05:04 | -16.87663 | 145.75247 | 18 ft | 0 kts | 66° |